logo
Search for airport 
image banner adimage banner adimage banner ad
image banner ad

LOKL - Lienz-Nikolsdorf

Located in District Lienz, Austria

ICAO - LOKL, IATA -

Data provided by Airmate  

General information

Coordinates: N46°47'54" E12°52'42"
Elevation is 2093 feet MSL.
 
View others Airports in Tyrol

Operational data

Special qualification required
Current time UTC:
Current local time:
Weather at : LIVD - Dobbiaco - Toblach Airport ( 50 km )
METAR: LIVD 150755Z AUTO VRB03KT //// 14/10 Q1017
View NOTAMs / SUP AIP / TFR affecting this airport [VIEW]
Communications frequencies: [VIEW]

Runways:

RWY identifierQFULength (ft)Width (ft)SurfaceLDA (ft)
12164059ASPHALT
30164059ASPHALT

Airport contact information

Address: District Lienz Austria

Other aviation service providers

Aviation club (not for profit)

Fliegerclub Lienzer Dolomiten

Fliegerclub Lienzer Dolomiten
Rated:
View ratings:
[VIEW]

Sportfliegerclub Lienz

Sportfliegerclub Lienz

Satellite view of LOKL